createdAt,value
2022-11-27T00:01:49.010Z,2.85
2022-11-27T00:04:15.883Z,3.53
2022-11-27T00:06:42.335Z,3.03
2022-11-27T00:09:11.230Z,2.97
2022-11-27T00:11:39.969Z,3.22
2022-11-27T00:14:06.611Z,3.65
2022-11-27T00:16:33.190Z,3.10
2022-11-27T00:18:59.526Z,2.75
2022-11-27T00:21:27.126Z,3.03
2022-11-27T00:23:54.551Z,3.10
2022-11-27T00:26:21.363Z,3.13
2022-11-27T00:28:48.011Z,3.25
2022-11-27T00:31:22.194Z,3.05
2022-11-27T00:33:48.793Z,2.58
2022-11-27T00:36:15.665Z,2.72
2022-11-27T00:38:42.048Z,2.58
2022-11-27T00:41:09.487Z,3.50
2022-11-27T00:43:43.623Z,2.33
2022-11-27T00:46:10.942Z,3.00
2022-11-27T00:48:37.286Z,2.58
2022-11-27T00:51:04.995Z,2.33
2022-11-27T00:53:31.794Z,2.85
2022-11-27T00:55:58.405Z,2.83
2022-11-27T00:58:25.821Z,2.50
2022-11-27T01:00:55.847Z,2.80
2022-11-27T01:03:22.703Z,2.80
2022-11-27T01:05:49.421Z,2.45
2022-11-27T01:08:16.049Z,2.80
2022-11-27T01:10:54.901Z,2.95
2022-11-27T01:13:32.320Z,3.17
2022-11-27T01:16:02.541Z,2.58
2022-11-27T01:18:29.460Z,2.38
2022-11-27T01:20:55.819Z,3.03
2022-11-27T01:23:23.167Z,3.35
2022-11-27T01:25:49.662Z,2.63
2022-11-27T01:28:16.353Z,2.75
2022-11-27T01:30:42.636Z,3.00
2022-11-27T01:33:08.950Z,1.98
2022-11-27T01:35:35.297Z,2.53
2022-11-27T01:38:01.730Z,2.20
2022-11-27T01:40:28.034Z,2.58
2022-11-27T01:42:54.337Z,2.45
2022-11-27T01:45:21.389Z,2.47
2022-11-27T01:48:06.095Z,2.75
2022-11-27T01:50:36.999Z,2.88
2022-11-27T01:53:06.838Z,3.15
2022-11-27T01:55:36.219Z,2.50
2022-11-27T01:58:10.430Z,2.45
2022-11-27T02:00:37.395Z,2.10
2022-11-27T02:03:04.149Z,2.38
2022-11-27T02:05:30.846Z,3.25
2022-11-27T02:07:59.233Z,2.60
2022-11-27T02:10:31.934Z,2.47
2022-11-27T02:13:05.674Z,2.67
2022-11-27T02:15:43.613Z,3.10
2022-11-27T02:18:24.996Z,2.17
2022-11-27T02:20:57.101Z,2.38
2022-11-27T02:23:29.406Z,2.85
2022-11-27T02:26:07.908Z,2.40
2022-11-27T02:28:53.240Z,2.17
2022-11-27T02:31:30.972Z,2.60
2022-11-27T02:34:00.974Z,2.70
2022-11-27T02:36:29.714Z,2.28
2022-11-27T02:39:01.067Z,2.20
2022-11-27T02:41:36.632Z,2.47
2022-11-27T02:44:03.681Z,2.42
2022-11-27T02:46:30.016Z,3.00
2022-11-27T02:49:02.411Z,3.03
2022-11-27T02:51:31.202Z,1.95
2022-11-27T02:53:58.887Z,2.00
2022-11-27T02:56:26.942Z,2.00
2022-11-27T02:58:55.022Z,2.40
2022-11-27T03:01:21.804Z,2.75
2022-11-27T03:03:51.687Z,2.40
2022-11-27T03:06:20.710Z,1.85
2022-11-27T03:08:47.011Z,2.33
2022-11-27T03:11:14.618Z,2.03
2022-11-27T03:13:43.470Z,2.83
2022-11-27T03:16:22.088Z,2.17
2022-11-27T03:18:48.431Z,2.03
2022-11-27T03:21:26.414Z,2.28
2022-11-27T03:23:52.918Z,2.75
2022-11-27T03:26:19.579Z,2.20
2022-11-27T03:28:47.062Z,2.22
2022-11-27T03:31:13.418Z,2.65
2022-11-27T03:33:39.907Z,2.33
2022-11-27T03:36:13.509Z,2.60
2022-11-27T03:38:39.900Z,2.40
2022-11-27T03:41:11.523Z,2.25
2022-11-27T03:43:42.100Z,2.63
2022-11-27T03:46:16.996Z,2.30
2022-11-27T03:48:52.577Z,2.43
2022-11-27T03:51:30.939Z,2.30
2022-11-27T03:54:04.015Z,2.67
2022-11-27T03:56:36.109Z,2.00
2022-11-27T03:59:22.706Z,2.00
2022-11-27T04:01:49.311Z,2.05
2022-11-27T04:04:15.787Z,1.92
2022-11-27T04:06:42.114Z,2.10
2022-11-27T04:09:08.402Z,1.83
2022-11-27T04:11:34.758Z,1.83
2022-11-27T04:14:01.053Z,2.08
2022-11-27T04:16:27.504Z,2.05
2022-11-27T04:18:53.950Z,2.15
2022-11-27T04:21:20.302Z,2.40
2022-11-27T04:23:46.626Z,1.90
2022-11-27T04:26:12.976Z,1.60
2022-11-27T04:28:39.346Z,1.95
2022-11-27T04:31:05.805Z,2.22
2022-11-27T04:33:32.309Z,1.88
2022-11-27T04:35:58.616Z,2.80
2022-11-27T04:38:25.055Z,2.65
2022-11-27T04:40:51.735Z,1.73
2022-11-27T04:43:18.032Z,2.33
2022-11-27T04:45:44.493Z,2.10
2022-11-27T04:48:10.792Z,2.30
2022-11-27T04:50:37.175Z,2.20
2022-11-27T04:53:03.595Z,2.17
2022-11-27T04:55:30.003Z,2.40
2022-11-27T04:57:56.385Z,1.88
2022-11-27T05:00:22.706Z,2.08
2022-11-27T05:02:49.059Z,1.92
2022-11-27T05:05:17.154Z,1.52
2022-11-27T05:07:43.743Z,1.45
2022-11-27T05:10:10.178Z,1.38
2022-11-27T05:12:36.485Z,1.52
2022-11-27T05:15:04.589Z,2.20
2022-11-27T05:17:31.294Z,1.70
2022-11-27T05:19:57.604Z,2.28
2022-11-27T05:22:23.934Z,1.65
2022-11-27T05:24:50.239Z,1.40
2022-11-27T05:27:16.534Z,1.50
2022-11-27T05:29:43.681Z,2.17
2022-11-27T05:32:09.965Z,2.00
2022-11-27T05:34:36.337Z,1.77
2022-11-27T05:37:02.658Z,1.08
2022-11-27T05:39:28.952Z,1.77
2022-11-27T05:41:55.299Z,1.85
2022-11-27T05:44:21.644Z,1.50
2022-11-27T05:46:48.049Z,1.55
2022-11-27T05:49:15.385Z,1.73
2022-11-27T05:51:45.122Z,1.55
2022-11-27T05:54:15.632Z,1.50
2022-11-27T05:56:41.948Z,1.90
2022-11-27T05:59:10.090Z,2.10
2022-11-27T06:01:36.447Z,1.88
2022-11-27T06:04:02.796Z,1.33
2022-11-27T06:06:29.094Z,1.63
2022-11-27T06:08:55.476Z,1.48
2022-11-27T06:11:22.394Z,1.83
2022-11-27T06:13:49.271Z,1.70
2022-11-27T06:16:16.961Z,1.60
2022-11-27T06:18:43.854Z,1.55
2022-11-27T06:21:11.133Z,1.38
2022-11-27T06:23:37.466Z,1.42
2022-11-27T06:26:11.439Z,1.25
2022-11-27T06:28:37.827Z,1.40
2022-11-27T06:31:17.310Z,1.92
2022-11-27T06:33:44.376Z,1.38
2022-11-27T06:36:10.687Z,1.60
2022-11-27T06:38:37.746Z,1.10
2022-11-27T06:41:09.050Z,1.25
2022-11-27T06:43:35.852Z,1.77
2022-11-27T06:46:03.292Z,1.23
2022-11-27T06:48:30.161Z,1.25
2022-11-27T06:51:00.708Z,1.30
2022-11-27T06:53:27.057Z,1.40
2022-11-27T06:55:53.378Z,1.30
2022-11-27T06:58:19.662Z,1.35
2022-11-27T07:00:45.977Z,1.27
2022-11-27T07:03:12.338Z,1.30
2022-11-27T07:05:38.676Z,1.58
2022-11-27T07:08:05.243Z,1.40
2022-11-27T07:10:36.741Z,1.42
2022-11-27T07:13:03.204Z,1.30
2022-11-27T07:15:29.549Z,1.65
2022-11-27T07:17:55.865Z,1.27
2022-11-27T07:20:22.133Z,1.60
2022-11-27T07:22:48.446Z,1.25
2022-11-27T07:25:14.793Z,1.50
2022-11-27T07:27:41.150Z,1.48
2022-11-27T07:30:07.837Z,0.90
2022-11-27T07:32:34.180Z,1.20
2022-11-27T07:35:00.846Z,1.60
2022-11-27T07:37:30.255Z,1.30
2022-11-27T07:40:03.923Z,1.60
2022-11-27T07:42:38.979Z,1.63
2022-11-27T07:45:06.933Z,1.30
2022-11-27T07:47:33.243Z,1.33
2022-11-27T07:50:00.550Z,1.40
2022-11-27T07:52:27.349Z,1.17
2022-11-27T07:54:53.986Z,1.67
2022-11-27T07:57:20.414Z,1.50
2022-11-27T07:59:47.711Z,1.33
2022-11-27T08:02:14.514Z,1.60
2022-11-27T08:04:41.134Z,1.58
2022-11-27T08:07:07.820Z,1.25
2022-11-27T08:09:34.199Z,1.48
2022-11-27T08:12:00.525Z,1.55
2022-11-27T08:14:26.958Z,1.90
2022-11-27T08:16:53.286Z,1.52
2022-11-27T08:19:19.611Z,1.55
2022-11-27T08:21:45.968Z,2.83
2022-11-27T08:24:12.333Z,1.70
2022-11-27T08:26:38.719Z,1.67
2022-11-27T08:29:06.610Z,2.13
2022-11-27T08:31:33.655Z,2.00
2022-11-27T08:34:00.113Z,1.77
2022-11-27T08:36:29.092Z,1.83
2022-11-27T08:38:55.557Z,1.95
2022-11-27T08:41:22.143Z,1.98
2022-11-27T08:43:48.437Z,1.65
2022-11-27T08:46:14.861Z,1.73
2022-11-27T08:48:41.952Z,1.63
2022-11-27T08:51:09.837Z,1.77
2022-11-27T08:53:37.554Z,1.92
2022-11-27T08:56:13.801Z,2.22
2022-11-27T08:58:41.175Z,1.60
2022-11-27T09:01:18.496Z,2.10
2022-11-27T09:03:45.129Z,1.95
2022-11-27T09:06:14.201Z,2.25
2022-11-27T09:08:41.282Z,1.65
2022-11-27T09:11:08.101Z,2.08
2022-11-27T09:13:36.987Z,1.60
2022-11-27T09:16:04.264Z,1.95
2022-11-27T09:18:30.744Z,1.75
2022-11-27T09:21:01.718Z,2.10
2022-11-27T09:23:28.519Z,1.52
2022-11-27T09:25:58.096Z,1.98
2022-11-27T09:28:28.191Z,2.15
2022-11-27T09:30:58.112Z,1.90
2022-11-27T09:33:25.133Z,1.98
2022-11-27T09:35:51.530Z,1.73
2022-11-27T09:38:17.924Z,2.10
2022-11-27T09:40:59.199Z,1.70
2022-11-27T09:43:29.863Z,1.85
2022-11-27T09:45:58.963Z,1.73
2022-11-27T09:48:33.238Z,2.20
2022-11-27T09:51:02.544Z,2.42
2022-11-27T09:53:49.151Z,2.45
2022-11-27T09:56:17.052Z,1.98
2022-11-27T09:58:46.026Z,2.50
2022-11-27T10:01:13.192Z,2.00
2022-11-27T10:03:43.130Z,2.00
2022-11-27T10:06:28.546Z,1.92
2022-11-27T10:09:07.341Z,2.40
2022-11-27T10:11:47.351Z,1.95
2022-11-27T10:14:13.643Z,2.28
2022-11-27T10:16:45.062Z,2.00
2022-11-27T10:19:30.027Z,2.40
2022-11-27T10:21:56.319Z,2.20
2022-11-27T10:24:28.539Z,2.42
2022-11-27T10:26:58.294Z,2.00
2022-11-27T10:29:27.720Z,3.05
2022-11-27T10:31:57.736Z,2.03
2022-11-27T10:34:43.339Z,2.08
2022-11-27T10:37:15.873Z,2.28
2022-11-27T10:39:45.068Z,2.30
2022-11-27T10:42:22.575Z,2.30
2022-11-27T10:44:55.104Z,2.22
2022-11-27T10:47:22.877Z,2.20
2022-11-27T10:49:49.222Z,2.65
2022-11-27T10:52:16.726Z,2.65
2022-11-27T10:54:44.042Z,2.70
2022-11-27T10:57:43.191Z,2.50
2022-11-27T11:00:15.148Z,2.40
2022-11-27T11:02:41.703Z,2.53
2022-11-27T11:08:16.897Z,2.50
2022-11-27T11:10:44.751Z,2.80
2022-11-27T11:13:11.032Z,2.65
2022-11-27T11:15:52.105Z,2.85
2022-11-27T11:18:20.088Z,2.72
2022-11-27T11:21:07.161Z,2.63
2022-11-27T11:23:34.607Z,2.90
2022-11-27T11:26:19.422Z,2.97
2022-11-27T11:28:52.170Z,3.25
2022-11-27T11:31:19.910Z,2.58
2022-11-27T11:34:02.842Z,1.70
2022-11-27T11:36:29.596Z,2.60
2022-11-27T11:38:56.187Z,2.35
2022-11-27T11:41:24.170Z,2.50
2022-11-27T11:43:55.719Z,2.60
2022-11-27T11:46:29.931Z,2.85
2022-11-27T11:48:58.034Z,3.10
2022-11-27T11:51:30.015Z,2.80
2022-11-27T11:54:05.842Z,2.88
2022-11-27T11:59:00.282Z,2.55
2022-11-27T12:01:38.667Z,2.92
2022-11-27T12:04:08.284Z,2.50
2022-11-27T12:06:34.603Z,2.40
2022-11-27T12:09:00.890Z,2.28
2022-11-27T12:11:30.304Z,2.50
2022-11-27T12:14:17.047Z,3.22
2022-11-27T12:16:49.206Z,2.92
2022-11-27T12:19:24.689Z,2.42
2022-11-27T12:21:50.978Z,2.85
2022-11-27T12:24:40.681Z,3.17
2022-11-27T12:27:11.955Z,2.78
2022-11-27T12:29:41.291Z,3.10
2022-11-27T12:32:07.566Z,3.00
2022-11-27T12:34:53.178Z,3.30
2022-11-27T12:37:33.107Z,2.67
2022-11-27T12:40:13.948Z,3.00
2022-11-27T12:42:43.022Z,2.83
2022-11-27T12:45:24.179Z,2.80
2022-11-27T12:48:00.297Z,2.65
2022-11-27T12:50:38.671Z,2.90
2022-11-27T12:53:11.745Z,2.85
2022-11-27T12:55:41.644Z,2.80
2022-11-27T12:58:13.538Z,2.50
2022-11-27T13:00:41.893Z,3.17
2022-11-27T13:03:13.873Z,3.35
2022-11-27T13:05:43.565Z,2.45
2022-11-27T13:08:14.029Z,2.88
2022-11-27T13:10:47.299Z,2.00
2022-11-27T13:13:19.518Z,2.80
2022-11-27T13:15:45.859Z,2.00
2022-11-27T13:18:24.171Z,2.03
2022-11-27T13:20:52.785Z,2.50
2022-11-27T13:23:20.284Z,2.08
2022-11-27T13:25:49.681Z,2.25
2022-11-27T13:28:27.198Z,2.35
2022-11-27T13:30:54.600Z,2.03
2022-11-27T13:33:27.237Z,2.10
2022-11-27T13:35:54.971Z,2.28
2022-11-27T13:38:23.238Z,2.20
2022-11-27T13:40:55.880Z,2.08
2022-11-27T13:43:29.598Z,2.08
2022-11-27T13:46:06.853Z,1.60
2022-11-27T13:48:34.992Z,1.88
2022-11-27T13:51:01.916Z,2.50
2022-11-27T13:53:32.761Z,2.13
2022-11-27T13:55:59.746Z,1.73
2022-11-27T13:58:29.290Z,2.33
2022-11-27T14:00:55.840Z,1.70
2022-11-27T14:03:28.920Z,1.85
2022-11-27T14:05:56.050Z,2.00
2022-11-27T14:08:25.623Z,2.25
2022-11-27T14:11:03.892Z,2.25
2022-11-27T14:13:39.301Z,2.30
2022-11-27T14:16:17.566Z,1.85
2022-11-27T14:18:49.224Z,1.70
2022-11-27T14:21:23.316Z,2.10
2022-11-27T14:23:50.681Z,2.35
2022-11-27T14:26:21.969Z,1.52
2022-11-27T14:28:49.824Z,1.90
2022-11-27T14:31:25.702Z,1.83
2022-11-27T14:36:38.434Z,2.13
2022-11-27T14:39:04.929Z,2.22
2022-11-27T14:41:31.654Z,1.98
2022-11-27T14:44:05.291Z,1.50
2022-11-27T14:46:32.773Z,1.95
2022-11-27T14:48:59.329Z,1.80
2022-11-27T14:51:32.825Z,2.65
2022-11-27T14:54:09.736Z,1.85
2022-11-27T14:56:37.526Z,2.40
2022-11-27T14:59:04.338Z,2.33
2022-11-27T15:01:32.132Z,1.77
2022-11-27T15:03:59.582Z,1.92
2022-11-27T15:06:27.653Z,2.70
2022-11-27T15:09:15.841Z,2.42
2022-11-27T15:11:55.533Z,1.92
2022-11-27T15:14:22.539Z,2.60
2022-11-27T15:16:50.075Z,2.97
2022-11-27T15:19:17.934Z,2.97
2022-11-27T15:21:48.456Z,3.13
2022-11-27T15:24:28.680Z,3.65
2022-11-27T15:26:54.970Z,3.60
2022-11-27T15:29:41.875Z,4.10
2022-11-27T15:32:34.549Z,4.25
2022-11-27T15:35:00.957Z,4.22
2022-11-27T15:37:28.710Z,4.82
2022-11-27T15:39:55.748Z,4.20
2022-11-27T15:42:22.533Z,4.45
2022-11-27T15:44:50.139Z,4.60
2022-11-27T15:47:22.668Z,6.50
2022-11-27T15:49:49.087Z,4.35
2022-11-27T15:52:15.511Z,2.95
2022-11-27T15:54:42.149Z,4.53
2022-11-27T15:57:08.594Z,3.83
2022-11-27T15:59:34.898Z,3.90
2022-11-27T16:02:01.406Z,4.35
2022-11-27T16:04:27.797Z,3.80
2022-11-27T16:06:54.143Z,3.72
2022-11-27T16:09:20.537Z,3.10
2022-11-27T16:11:46.838Z,3.35
2022-11-27T16:14:13.233Z,3.88
2022-11-27T16:16:39.613Z,3.55
2022-11-27T16:19:06.465Z,4.18
2022-11-27T16:21:33.770Z,3.50
2022-11-27T16:24:01.386Z,3.28
2022-11-27T16:26:28.282Z,4.30
2022-11-27T16:28:54.626Z,4.03
2022-11-27T16:31:21.832Z,3.47
2022-11-27T16:33:48.651Z,3.55
2022-11-27T16:36:16.370Z,3.70
2022-11-27T16:38:43.163Z,3.40
2022-11-27T16:41:10.851Z,3.70
2022-11-27T16:43:38.482Z,3.10
2022-11-27T16:46:08.888Z,3.58
2022-11-27T16:48:35.929Z,3.35
2022-11-27T16:51:12.974Z,2.28
2022-11-27T16:53:40.878Z,3.03
2022-11-27T16:56:08.124Z,2.78
2022-11-27T16:58:35.276Z,3.00
2022-11-27T17:01:04.884Z,3.22
2022-11-27T17:03:31.370Z,3.10
2022-11-27T17:05:58.661Z,2.95
2022-11-27T17:08:25.189Z,2.70
2022-11-27T17:10:51.513Z,3.38
2022-11-27T17:13:18.064Z,4.53
2022-11-27T17:15:44.579Z,3.30
2022-11-27T17:18:11.053Z,4.10
2022-11-27T17:20:37.536Z,3.80
2022-11-27T17:23:03.806Z,3.88
2022-11-27T17:25:30.490Z,3.75
2022-11-27T17:27:56.858Z,3.88
2022-11-27T17:30:23.141Z,3.67
2022-11-27T17:32:49.469Z,3.92
2022-11-27T17:35:15.767Z,3.80
2022-11-27T17:37:43.543Z,3.75
2022-11-27T17:40:10.385Z,3.67
2022-11-27T17:42:36.892Z,3.58
2022-11-27T17:45:03.609Z,3.35
2022-11-27T17:47:30.043Z,3.83
2022-11-27T17:49:56.356Z,3.95
2022-11-27T17:52:22.668Z,3.95
2022-11-27T17:54:49.051Z,3.67
2022-11-27T17:57:15.334Z,3.45
2022-11-27T17:59:41.854Z,3.75
2022-11-27T18:02:09.489Z,3.92
2022-11-27T18:04:36.242Z,4.20
2022-11-27T18:07:02.604Z,4.55
2022-11-27T18:09:28.912Z,3.80
2022-11-27T18:11:57.212Z,2.65
2022-11-27T18:14:23.530Z,3.47
2022-11-27T18:16:50.007Z,3.85
2022-11-27T18:19:16.563Z,4.22
2022-11-27T18:21:42.862Z,3.55
2022-11-27T18:24:25.312Z,4.30
2022-11-27T18:27:10.777Z,2.58
2022-11-27T18:29:37.936Z,3.58
2022-11-27T18:32:04.540Z,4.80
2022-11-27T18:34:31.179Z,4.00
2022-11-27T18:36:59.608Z,3.97
2022-11-27T18:39:26.208Z,4.10
2022-11-27T18:41:52.514Z,3.97
2022-11-27T18:44:19.098Z,4.18
2022-11-27T18:46:45.528Z,2.58
2022-11-27T18:49:12.404Z,4.35
2022-11-27T18:51:38.742Z,3.95
2022-11-27T18:54:05.304Z,3.55
2022-11-27T18:56:31.977Z,4.18
2022-11-27T18:59:01.969Z,3.88
2022-11-27T19:01:29.571Z,4.25
2022-11-27T19:03:56.217Z,4.57
2022-11-27T19:06:23.673Z,2.97
2022-11-27T19:08:50.122Z,3.35
2022-11-27T19:11:18.240Z,4.03
2022-11-27T19:13:45.893Z,3.95
2022-11-27T19:16:14.113Z,4.78
2022-11-27T19:18:40.857Z,4.65
2022-11-27T19:21:10.777Z,4.80
2022-11-27T19:23:39.338Z,4.93
2022-11-27T19:26:13.202Z,5.00
2022-11-27T19:28:39.927Z,4.82
2022-11-27T19:31:07.643Z,4.72
2022-11-27T19:33:35.930Z,4.35
2022-11-27T19:36:08.536Z,3.20
2022-11-27T19:38:35.475Z,5.13
2022-11-27T19:41:02.138Z,4.57
2022-11-27T19:43:28.442Z,4.80
2022-11-27T19:45:54.827Z,4.65
2022-11-27T19:48:23.387Z,3.95
2022-11-27T19:50:51.607Z,4.10
2022-11-27T19:53:18.250Z,3.83
2022-11-27T19:55:44.541Z,3.97
2022-11-27T19:58:12.304Z,3.92
2022-11-27T20:00:38.637Z,5.88
2022-11-27T20:03:04.947Z,4.57
2022-11-27T20:05:31.249Z,3.92
2022-11-27T20:07:59.538Z,4.18
2022-11-27T20:10:26.288Z,4.30
2022-11-27T20:12:52.644Z,4.07
2022-11-27T20:15:19.564Z,3.78
2022-11-27T20:17:45.891Z,4.63
2022-11-27T20:20:13.416Z,4.25
2022-11-27T20:22:39.792Z,4.57
2022-11-27T20:25:21.766Z,4.30
2022-11-27T20:27:48.333Z,4.22
2022-11-27T20:30:14.692Z,4.22
2022-11-27T20:32:41.048Z,4.32
2022-11-27T20:35:07.593Z,4.28
2022-11-27T20:37:34.854Z,3.58
2022-11-27T20:40:01.214Z,4.15
2022-11-27T20:42:27.627Z,4.82
2022-11-27T20:44:53.934Z,4.28
2022-11-27T20:47:20.298Z,4.70
2022-11-27T20:49:46.658Z,4.97
2022-11-27T20:52:14.457Z,4.97
2022-11-27T20:54:40.791Z,3.92
2022-11-27T20:57:08.803Z,4.57
2022-11-27T20:59:35.188Z,4.50
2022-11-27T21:02:02.772Z,4.53
2022-11-27T21:04:29.294Z,4.95
2022-11-27T21:06:56.878Z,4.15
2022-11-27T21:09:23.947Z,4.63
2022-11-27T21:11:50.387Z,4.50
2022-11-27T21:14:16.823Z,4.88
2022-11-27T21:16:46.903Z,4.50
2022-11-27T21:19:20.739Z,4.72
2022-11-27T21:21:47.251Z,4.57
2022-11-27T21:24:13.695Z,5.07
2022-11-27T21:26:40.451Z,4.65
2022-11-27T21:29:07.290Z,4.50
2022-11-27T21:31:37.505Z,4.45
2022-11-27T21:34:05.371Z,5.25
2022-11-27T21:36:33.282Z,4.53
2022-11-27T21:39:00.120Z,4.80
2022-11-27T21:41:27.444Z,5.05
2022-11-27T21:43:54.978Z,5.35
2022-11-27T21:46:22.628Z,5.43
2022-11-27T21:48:50.154Z,4.22
2022-11-27T21:51:16.989Z,5.05
2022-11-27T21:53:44.088Z,4.97
2022-11-27T21:56:11.677Z,4.18
2022-11-27T21:58:38.227Z,4.65
2022-11-27T22:01:06.785Z,4.47
2022-11-27T22:03:33.680Z,4.07
2022-11-27T22:06:03.718Z,4.63
2022-11-27T22:08:30.477Z,4.18
2022-11-27T22:10:56.878Z,4.57
2022-11-27T22:13:23.345Z,4.05
2022-11-27T22:15:50.028Z,4.00
2022-11-27T22:18:16.347Z,4.40
2022-11-27T22:20:42.763Z,4.00
2022-11-27T22:23:09.115Z,4.70
2022-11-27T22:25:35.427Z,4.55
2022-11-27T22:28:01.814Z,4.32
2022-11-27T22:30:28.347Z,4.38
2022-11-27T22:32:55.349Z,4.25
2022-11-27T22:35:22.371Z,4.25
2022-11-27T22:37:48.690Z,4.93
2022-11-27T22:40:15.006Z,4.45
2022-11-27T22:42:41.387Z,4.32
2022-11-27T22:45:07.957Z,4.88
2022-11-27T22:47:34.289Z,4.50
2022-11-27T22:50:00.646Z,4.57
2022-11-27T22:52:27.856Z,3.88
2022-11-27T22:54:54.163Z,4.60
2022-11-27T22:57:20.777Z,4.85
2022-11-27T22:59:47.152Z,4.78
2022-11-27T23:02:13.621Z,4.93
2022-11-27T23:04:40.148Z,4.03
2022-11-27T23:07:06.740Z,4.53
2022-11-27T23:09:34.090Z,4.43
2022-11-27T23:12:00.459Z,4.47
2022-11-27T23:14:26.966Z,4.82
2022-11-27T23:16:53.541Z,4.65
2022-11-27T23:19:21.061Z,5.28
2022-11-27T23:21:47.397Z,5.00
2022-11-27T23:24:15.485Z,4.55
2022-11-27T23:26:42.245Z,4.75
2022-11-27T23:29:08.900Z,5.15
2022-11-27T23:31:36.268Z,4.70
2022-11-27T23:34:05.008Z,4.75
2022-11-27T23:36:32.243Z,5.22
2022-11-27T23:39:02.925Z,5.03
2022-11-27T23:41:29.478Z,5.28
2022-11-27T23:43:56.437Z,4.82
2022-11-27T23:46:26.213Z,4.95
2022-11-27T23:48:56.281Z,4.68
2022-11-27T23:51:24.522Z,4.82
2022-11-27T23:53:50.999Z,4.82
2022-11-27T23:56:21.778Z,4.82
2022-11-27T23:58:48.346Z,4.70
